sensor_id;sensor_type;location;lat;lon;timestamp;pressure;altitude;pressure_sealevel;temperature;humidity
34241;BME280;20503;50.200;19.508;2023-01-25T00:02:10;103627.80;;;0.84;100.00
34241;BME280;20503;50.200;19.508;2023-01-25T00:07:21;103617.65;;;0.89;100.00
34241;BME280;20503;50.200;19.508;2023-01-25T00:12:31;103613.84;;;0.93;100.00
34241;BME280;20503;50.200;19.508;2023-01-25T00:17:42;103606.94;;;0.87;100.00
34241;BME280;20503;50.200;19.508;2023-01-25T00:22:53;103611.31;;;0.90;100.00
34241;BME280;20503;50.200;19.508;2023-01-25T00:28:04;103606.66;;;0.93;100.00
34241;BME280;20503;50.200;19.508;2023-01-25T00:38:33;103591.48;;;0.91;100.00
34241;BME280;20503;50.200;19.508;2023-01-25T00:43:36;103615.59;;;0.94;100.00
34241;BME280;20503;50.200;19.508;2023-01-25T00:48:47;103593.06;;;0.95;100.00
34241;BME280;20503;50.200;19.508;2023-01-25T00:53:57;103588.24;;;1.01;100.00
34241;BME280;20503;50.200;19.508;2023-01-25T00:59:10;103587.67;;;0.95;100.00
34241;BME280;20503;50.200;19.508;2023-01-25T01:04:20;103594.64;;;0.99;100.00
34241;BME280;20503;50.200;19.508;2023-01-25T01:09:31;103574.87;;;1.00;100.00
34241;BME280;20503;50.200;19.508;2023-01-25T01:14:41;103567.55;;;1.02;100.00
34241;BME280;20503;50.200;19.508;2023-01-25T01:19:51;103555.98;;;1.00;100.00
34241;BME280;20503;50.200;19.508;2023-01-25T01:25:02;103564.08;;;1.00;100.00
34241;BME280;20503;50.200;19.508;2023-01-25T01:30:13;103553.11;;;1.03;100.00
34241;BME280;20503;50.200;19.508;2023-01-25T01:35:24;103538.91;;;0.99;100.00
34241;BME280;20503;50.200;19.508;2023-01-25T01:40:34;103529.25;;;0.95;100.00
34241;BME280;20503;50.200;19.508;2023-01-25T01:45:52;103540.10;;;0.94;100.00
34241;BME280;20503;50.200;19.508;2023-01-25T01:50:59;103523.70;;;0.98;100.00
34241;BME280;20503;50.200;19.508;2023-01-25T01:56:10;103517.12;;;1.04;100.00
34241;BME280;20503;50.200;19.508;2023-01-25T02:01:18;103497.59;;;0.99;100.00
34241;BME280;20503;50.200;19.508;2023-01-25T02:06:44;103496.74;;;0.98;100.00
34241;BME280;20503;50.200;19.508;2023-01-25T02:11:45;103488.71;;;0.97;100.00
34241;BME280;20503;50.200;19.508;2023-01-25T02:16:50;103494.83;;;1.00;100.00
34241;BME280;20503;50.200;19.508;2023-01-25T02:22:03;103493.08;;;0.99;100.00
34241;BME280;20503;50.200;19.508;2023-01-25T02:27:11;103496.01;;;0.95;100.00
34241;BME280;20503;50.200;19.508;2023-01-25T02:32:22;103501.56;;;0.92;100.00
34241;BME280;20503;50.200;19.508;2023-01-25T02:37:33;103498.09;;;0.90;100.00
34241;BME280;20503;50.200;19.508;2023-01-25T02:42:44;103502.70;;;0.88;100.00
34241;BME280;20503;50.200;19.508;2023-01-25T02:47:55;103497.91;;;0.93;100.00
34241;BME280;20503;50.200;19.508;2023-01-25T02:53:05;103492.36;;;0.96;100.00
34241;BME280;20503;50.200;19.508;2023-01-25T02:58:16;103480.01;;;0.92;100.00
34241;BME280;20503;50.200;19.508;2023-01-25T03:03:27;103488.63;;;0.98;100.00
34241;BME280;20503;50.200;19.508;2023-01-25T03:08:38;103489.60;;;0.97;100.00
34241;BME280;20503;50.200;19.508;2023-01-25T03:13:48;103484.11;;;0.99;100.00
34241;BME280;20503;50.200;19.508;2023-01-25T03:18:59;103492.05;;;1.02;100.00
34241;BME280;20503;50.200;19.508;2023-01-25T03:24:10;103478.64;;;1.00;100.00
34241;BME280;20503;50.200;19.508;2023-01-25T03:29:21;103486.67;;;1.02;100.00
34241;BME280;20503;50.200;19.508;2023-01-25T03:34:31;103484.66;;;1.05;100.00
34241;BME280;20503;50.200;19.508;2023-01-25T03:39:42;103478.58;;;1.02;100.00
34241;BME280;20503;50.200;19.508;2023-01-25T03:44:53;103477.63;;;1.03;100.00
34241;BME280;20503;50.200;19.508;2023-01-25T03:50:04;103473.80;;;1.07;100.00
34241;BME280;20503;50.200;19.508;2023-01-25T03:55:15;103470.16;;;1.08;100.00
34241;BME280;20503;50.200;19.508;2023-01-25T04:00:26;103460.16;;;1.10;100.00
34241;BME280;20503;50.200;19.508;2023-01-25T04:05:36;103458.51;;;1.07;100.00
34241;BME280;20503;50.200;19.508;2023-01-25T04:10:51;103460.09;;;1.11;100.00
34241;BME280;20503;50.200;19.508;2023-01-25T04:15:58;103445.88;;;1.08;100.00
34241;BME280;20503;50.200;19.508;2023-01-25T04:21:08;103442.84;;;1.14;100.00
34241;BME280;20503;50.200;19.508;2023-01-25T04:26:19;103435.64;;;1.14;100.00
34241;BME280;20503;50.200;19.508;2023-01-25T04:31:30;103439.88;;;1.03;100.00
34241;BME280;20503;50.200;19.508;2023-01-25T04:36:41;103440.55;;;1.06;100.00
34241;BME280;20503;50.200;19.508;2023-01-25T04:41:52;103433.59;;;1.02;100.00
34241;BME280;20503;50.200;19.508;2023-01-25T04:47:02;103424.38;;;1.06;100.00
34241;BME280;20503;50.200;19.508;2023-01-25T04:52:13;103427.00;;;1.08;100.00
34241;BME280;20503;50.200;19.508;2023-01-25T04:57:24;103419.09;;;1.05;100.00
34241;BME280;20503;50.200;19.508;2023-01-25T05:02:35;103419.88;;;1.07;100.00
34241;BME280;20503;50.200;19.508;2023-01-25T05:07:46;103415.60;;;1.03;100.00
34241;BME280;20503;50.200;19.508;2023-01-25T05:12:56;103413.77;;;1.03;100.00
34241;BME280;20503;50.200;19.508;2023-01-25T05:18:07;103410.05;;;1.06;100.00
34241;BME280;20503;50.200;19.508;2023-01-25T05:23:18;103416.39;;;1.05;100.00
34241;BME280;20503;50.200;19.508;2023-01-25T05:28:29;103408.91;;;1.10;100.00
34241;BME280;20503;50.200;19.508;2023-01-25T05:33:39;103401.78;;;1.09;100.00
34241;BME280;20503;50.200;19.508;2023-01-25T05:38:50;103398.13;;;1.10;100.00
34241;BME280;20503;50.200;19.508;2023-01-25T05:44:01;103399.09;;;1.09;100.00
34241;BME280;20503;50.200;19.508;2023-01-25T05:49:12;103396.55;;;1.06;100.00
34241;BME280;20503;50.200;19.508;2023-01-25T05:54:23;103400.76;;;1.11;100.00
34241;BME280;20503;50.200;19.508;2023-01-25T05:59:33;103405.08;;;1.14;100.00
34241;BME280;20503;50.200;19.508;2023-01-25T06:04:44;103399.01;;;1.10;100.00
34241;BME280;20503;50.200;19.508;2023-01-25T06:09:55;103402.38;;;1.14;100.00
34241;BME280;20503;50.200;19.508;2023-01-25T06:15:07;103411.61;;;1.10;100.00
34241;BME280;20503;50.200;19.508;2023-01-25T06:20:16;103403.08;;;1.02;100.00
34241;BME280;20503;50.200;19.508;2023-01-25T06:25:27;103404.73;;;1.04;100.00
34241;BME280;20503;50.200;19.508;2023-01-25T06:30:38;103386.48;;;1.09;100.00
34241;BME280;20503;50.200;19.508;2023-01-25T06:35:49;103397.28;;;1.09;100.00
34241;BME280;20503;50.200;19.508;2023-01-25T06:41:05;103388.30;;;1.09;100.00
34241;BME280;20503;50.200;19.508;2023-01-25T06:46:11;103387.34;;;1.10;100.00
34241;BME280;20503;50.200;19.508;2023-01-25T06:51:21;103378.30;;;1.11;100.00
34241;BME280;20503;50.200;19.508;2023-01-25T06:56:32;103387.02;;;1.16;100.00
34241;BME280;20503;50.200;19.508;2023-01-25T07:01:43;103372.59;;;1.17;100.00
34241;BME280;20503;50.200;19.508;2023-01-25T07:06:53;103373.37;;;1.19;100.00
34241;BME280;20503;50.200;19.508;2023-01-25T07:12:05;103365.34;;;1.17;100.00
34241;BME280;20503;50.200;19.508;2023-01-25T07:17:15;103372.59;;;1.17;100.00
34241;BME280;20503;50.200;19.508;2023-01-25T07:22:26;103361.16;;;1.12;100.00
34241;BME280;20503;50.200;19.508;2023-01-25T07:27:36;103362.57;;;1.19;100.00
34241;BME280;20503;50.200;19.508;2023-01-25T07:32:47;103356.84;;;1.25;100.00
34241;BME280;20503;50.200;19.508;2023-01-25T07:37:58;103353.00;;;1.29;100.00
34241;BME280;20503;50.200;19.508;2023-01-25T07:43:09;103352.22;;;1.27;100.00
34241;BME280;20503;50.200;19.508;2023-01-25T07:48:20;103346.64;;;1.30;100.00
34241;BME280;20503;50.200;19.508;2023-01-25T07:53:40;103349.28;;;1.31;100.00
34241;BME280;20503;50.200;19.508;2023-01-25T07:58:47;103337.77;;;1.28;100.00
34241;BME280;20503;50.200;19.508;2023-01-25T08:03:59;103332.72;;;1.37;100.00
34241;BME280;20503;50.200;19.508;2023-01-25T08:09:14;103341.78;;;1.21;100.00
34241;BME280;20503;50.200;19.508;2023-01-25T08:14:19;103331.18;;;1.18;100.00
34241;BME280;20503;50.200;19.508;2023-01-25T08:19:30;103332.31;;;1.29;100.00
34241;BME280;20503;50.200;19.508;2023-01-25T08:24:41;103316.20;;;1.28;100.00
34241;BME280;20503;50.200;19.508;2023-01-25T08:29:51;103319.84;;;1.27;100.00
34241;BME280;20503;50.200;19.508;2023-01-25T08:35:02;103306.90;;;1.18;100.00
34241;BME280;20503;50.200;19.508;2023-01-25T08:40:13;103309.59;;;1.18;100.00
34241;BME280;20503;50.200;19.508;2023-01-25T08:45:24;103307.57;;;1.52;100.00
34241;BME280;20503;50.200;19.508;2023-01-25T08:50:35;103308.85;;;1.76;100.00
34241;BME280;20503;50.200;19.508;2023-01-25T08:55:45;103304.37;;;1.90;100.00
34241;BME280;20503;50.200;19.508;2023-01-25T09:01:01;103302.30;;;1.80;100.00
34241;BME280;20503;50.200;19.508;2023-01-25T09:06:08;103293.38;;;1.93;100.00
34241;BME280;20503;50.200;19.508;2023-01-25T09:11:20;103304.95;;;2.25;100.00
34241;BME280;20503;50.200;19.508;2023-01-25T09:16:28;103299.44;;;2.26;100.00
34241;BME280;20503;50.200;19.508;2023-01-25T09:21:39;103293.92;;;2.14;100.00
34241;BME280;20503;50.200;19.508;2023-01-25T09:26:50;103289.06;;;2.05;100.00
34241;BME280;20503;50.200;19.508;2023-01-25T09:32:01;103279.06;;;2.07;100.00
34241;BME280;20503;50.200;19.508;2023-01-25T09:37:12;103268.92;;;2.10;100.00
34241;BME280;20503;50.200;19.508;2023-01-25T09:47:46;103254.30;;;1.85;100.00
34241;BME280;20503;50.200;19.508;2023-01-25T09:52:58;103224.56;;;2.00;100.00
34241;BME280;20503;50.200;19.508;2023-01-25T09:58:01;103240.14;;;1.82;100.00
34241;BME280;20503;50.200;19.508;2023-01-25T10:08:30;103222.51;;;2.04;100.00
34241;BME280;20503;50.200;19.508;2023-01-25T10:13:33;103218.57;;;2.09;100.00
34241;BME280;20503;50.200;19.508;2023-01-25T10:34:21;103184.52;;;2.35;100.00
34241;BME280;20503;50.200;19.508;2023-01-25T10:39:23;103182.90;;;2.18;100.00
34241;BME280;20503;50.200;19.508;2023-01-25T10:44:33;103183.75;;;2.19;100.00
34241;BME280;20503;50.200;19.508;2023-01-25T11:05:24;103149.40;;;2.21;100.00
34241;BME280;20503;50.200;19.508;2023-01-25T11:10:35;103150.48;;;2.18;100.00
34241;BME280;20503;50.200;19.508;2023-01-25T11:15:36;103129.45;;;2.23;100.00
34241;BME280;20503;50.200;19.508;2023-01-25T11:21:02;103128.48;;;2.10;100.00
34241;BME280;20503;50.200;19.508;2023-01-25T11:31:16;103097.91;;;1.96;100.00
34241;BME280;20503;50.200;19.508;2023-01-25T12:13:48;103045.42;;;2.14;100.00
34241;BME280;20503;50.200;19.508;2023-01-25T12:23:31;103030.90;;;2.02;100.00
34241;BME280;20503;50.200;19.508;2023-01-25T12:28:41;103020.94;;;2.03;100.00
34241;BME280;20503;50.200;19.508;2023-01-25T12:33:55;103010.41;;;2.12;100.00
34241;BME280;20503;50.200;19.508;2023-01-25T12:39:07;103008.08;;;2.20;100.00
34241;BME280;20503;50.200;19.508;2023-01-25T12:49:28;102996.22;;;2.23;100.00
34241;BME280;20503;50.200;19.508;2023-01-25T12:54:37;102987.06;;;2.11;100.00
34241;BME280;20503;50.200;19.508;2023-01-25T13:10:19;102974.07;;;2.30;100.00
34241;BME280;20503;50.200;19.508;2023-01-25T13:15:33;102973.22;;;2.30;100.00
34241;BME280;20503;50.200;19.508;2023-01-25T13:20:47;102964.56;;;2.25;100.00
34241;BME280;20503;50.200;19.508;2023-01-25T13:25:49;102966.54;;;2.09;100.00
34241;BME280;20503;50.200;19.508;2023-01-25T13:30:52;102964.32;;;2.15;100.00
34241;BME280;20503;50.200;19.508;2023-01-25T13:35:55;102948.61;;;2.08;100.00
34241;BME280;20503;50.200;19.508;2023-01-25T13:41:02;102951.23;;;1.95;100.00
34241;BME280;20503;50.200;19.508;2023-01-25T13:46:08;102934.13;;;2.09;100.00
34241;BME280;20503;50.200;19.508;2023-01-25T13:51:13;102927.39;;;2.02;100.00
34241;BME280;20503;50.200;19.508;2023-01-25T14:01:34;102918.57;;;1.86;100.00
34241;BME280;20503;50.200;19.508;2023-01-25T14:06:40;102913.34;;;1.97;100.00
34241;BME280;20503;50.200;19.508;2023-01-25T14:11:45;102914.13;;;1.85;100.00
34241;BME280;20503;50.200;19.508;2023-01-25T14:17:22;102899.46;;;1.89;100.00
34241;BME280;20503;50.200;19.508;2023-01-25T14:22:21;102892.79;;;1.94;100.00
34241;BME280;20503;50.200;19.508;2023-01-25T14:27:19;102895.44;;;1.82;100.00
34241;BME280;20503;50.200;19.508;2023-01-25T14:32:26;102903.34;;;1.85;100.00
34241;BME280;20503;50.200;19.508;2023-01-25T14:37:41;102904.60;;;1.79;100.00
34241;BME280;20503;50.200;19.508;2023-01-25T14:42:49;102901.39;;;1.87;100.00
34241;BME280;20503;50.200;19.508;2023-01-25T14:47:58;102888.85;;;1.86;100.00
34241;BME280;20503;50.200;19.508;2023-01-25T14:58:24;102870.34;;;1.68;100.00
34241;BME280;20503;50.200;19.508;2023-01-25T15:03:31;102874.88;;;1.53;100.00
34241;BME280;20503;50.200;19.508;2023-01-25T15:08:41;102862.70;;;1.34;100.00
34241;BME280;20503;50.200;19.508;2023-01-25T15:14:01;102851.23;;;1.30;100.00
34241;BME280;20503;50.200;19.508;2023-01-25T15:19:03;102849.20;;;1.34;100.00
34241;BME280;20503;50.200;19.508;2023-01-25T15:24:13;102854.78;;;1.31;100.00
34241;BME280;20503;50.200;19.508;2023-01-25T15:29:24;102855.17;;;1.25;100.00
34241;BME280;20503;50.200;19.508;2023-01-25T15:34:35;102857.68;;;1.28;100.00
34241;BME280;20503;50.200;19.508;2023-01-25T15:39:46;102853.54;;;1.22;100.00
34241;BME280;20503;50.200;19.508;2023-01-25T15:44:57;102852.41;;;1.26;100.00
34241;BME280;20503;50.200;19.508;2023-01-25T15:50:15;102838.24;;;1.23;100.00
34241;BME280;20503;50.200;19.508;2023-01-25T15:55:18;102833.05;;;1.20;100.00
34241;BME280;20503;50.200;19.508;2023-01-25T16:00:29;102830.55;;;1.17;100.00
34241;BME280;20503;50.200;19.508;2023-01-25T16:05:40;102814.38;;;1.17;100.00
34241;BME280;20503;50.200;19.508;2023-01-25T16:10:50;102810.31;;;1.10;100.00
34241;BME280;20503;50.200;19.508;2023-01-25T16:16:01;102796.36;;;1.03;100.00
34241;BME280;20503;50.200;19.508;2023-01-25T16:21:12;102806.86;;;1.08;100.00
34241;BME280;20503;50.200;19.508;2023-01-25T16:26:25;102793.79;;;1.02;100.00
34241;BME280;20503;50.200;19.508;2023-01-25T16:31:34;102788.95;;;1.07;100.00
34241;BME280;20503;50.200;19.508;2023-01-25T16:36:44;102782.80;;;1.05;100.00
34241;BME280;20503;50.200;19.508;2023-01-25T16:41:55;102788.39;;;1.02;100.00
34241;BME280;20503;50.200;19.508;2023-01-25T16:47:06;102781.55;;;0.96;100.00
34241;BME280;20503;50.200;19.508;2023-01-25T16:52:17;102777.06;;;0.83;100.00
34241;BME280;20503;50.200;19.508;2023-01-25T16:57:27;102769.34;;;0.91;100.00
34241;BME280;20503;50.200;19.508;2023-01-25T17:02:40;102763.19;;;0.89;100.00
34241;BME280;20503;50.200;19.508;2023-01-25T17:07:49;102751.04;;;0.82;100.00
34241;BME280;20503;50.200;19.508;2023-01-25T17:13:00;102755.58;;;0.81;100.00
34241;BME280;20503;50.200;19.508;2023-01-25T17:18:10;102742.69;;;0.72;100.00
34241;BME280;20503;50.200;19.508;2023-01-25T17:23:21;102735.39;;;0.74;100.00
34241;BME280;20503;50.200;19.508;2023-01-25T17:28:32;102725.95;;;0.67;100.00
34241;BME280;20503;50.200;19.508;2023-01-25T17:33:44;102730.86;;;0.61;100.00
34241;BME280;20503;50.200;19.508;2023-01-25T17:38:54;102722.09;;;0.57;100.00
34241;BME280;20503;50.200;19.508;2023-01-25T17:44:04;102715.86;;;0.57;100.00
34241;BME280;20503;50.200;19.508;2023-01-25T17:49:16;102715.86;;;0.57;100.00
34241;BME280;20503;50.200;19.508;2023-01-25T17:54:26;102713.94;;;0.45;100.00
34241;BME280;20503;50.200;19.508;2023-01-25T17:59:37;102707.98;;;0.40;100.00
34241;BME280;20503;50.200;19.508;2023-01-25T18:04:48;102694.92;;;0.34;100.00
34241;BME280;20503;50.200;19.508;2023-01-25T18:09:58;102683.96;;;0.37;100.00
34241;BME280;20503;50.200;19.508;2023-01-25T18:15:09;102676.43;;;0.42;100.00
34241;BME280;20503;50.200;19.508;2023-01-25T18:20:20;102677.20;;;0.44;100.00
34241;BME280;20503;50.200;19.508;2023-01-25T18:25:33;102679.69;;;0.47;100.00
34241;BME280;20503;50.200;19.508;2023-01-25T18:30:48;102667.10;;;0.47;100.00
34241;BME280;20503;50.200;19.508;2023-01-25T18:35:53;102660.84;;;0.47;100.00
34241;BME280;20503;50.200;19.508;2023-01-25T18:41:03;102656.04;;;0.52;100.00
34241;BME280;20503;50.200;19.508;2023-01-25T18:46:14;102643.14;;;0.57;100.00
34241;BME280;20503;50.200;19.508;2023-01-25T18:51:24;102640.66;;;0.40;100.00
34241;BME280;20503;50.200;19.508;2023-01-25T18:56:35;102643.64;;;0.35;100.00
34241;BME280;20503;50.200;19.508;2023-01-25T19:01:46;102624.98;;;0.32;100.00
34241;BME280;20503;50.200;19.508;2023-01-25T19:06:57;102627.49;;;0.35;100.00
34241;BME280;20503;50.200;19.508;2023-01-25T19:12:09;102633.27;;;0.29;100.00
34241;BME280;20503;50.200;19.508;2023-01-25T19:17:18;102626.80;;;0.32;100.00
34241;BME280;20503;50.200;19.508;2023-01-25T19:22:29;102616.45;;;0.26;100.00
34241;BME280;20503;50.200;19.508;2023-01-25T19:27:40;102610.00;;;0.28;100.00
34241;BME280;20503;50.200;19.508;2023-01-25T19:32:51;102593.86;;;0.28;100.00
34241;BME280;20503;50.200;19.508;2023-01-25T19:38:02;102590.56;;;0.23;100.00
34241;BME280;20503;50.200;19.508;2023-01-25T19:43:12;102597.68;;;0.24;100.00
34241;BME280;20503;50.200;19.508;2023-01-25T19:48:23;102584.13;;;0.26;100.00
34241;BME280;20503;50.200;19.508;2023-01-25T19:53:34;102587.29;;;0.32;100.00
34241;BME280;20503;50.200;19.508;2023-01-25T19:58:46;102577.30;;;0.34;100.00
34241;BME280;20503;50.200;19.508;2023-01-25T20:03:57;102577.69;;;0.28;100.00
34241;BME280;20503;50.200;19.508;2023-01-25T20:09:06;102569.70;;;0.27;100.00
34241;BME280;20503;50.200;19.508;2023-01-25T20:14:17;102575.09;;;0.27;100.00
34241;BME280;20503;50.200;19.508;2023-01-25T20:19:28;102567.23;;;0.24;100.00
34241;BME280;20503;50.200;19.508;2023-01-25T20:24:39;102559.61;;;0.30;100.00
34241;BME280;20503;50.200;19.508;2023-01-25T20:29:49;102552.49;;;0.29;100.00
34241;BME280;20503;50.200;19.508;2023-01-25T20:35:00;102540.23;;;0.11;100.00
34241;BME280;20503;50.200;19.508;2023-01-25T20:40:12;102544.18;;;0.06;100.00
34241;BME280;20503;50.200;19.508;2023-01-25T20:45:22;102546.11;;;0.04;100.00
34241;BME280;20503;50.200;19.508;2023-01-25T20:50:33;102546.19;;;0.02;100.00
34241;BME280;20503;50.200;19.508;2023-01-25T20:55:43;102543.70;;;-0.01;100.00
34241;BME280;20503;50.200;19.508;2023-01-25T21:00:54;102538.52;;;-0.03;100.00
34241;BME280;20503;50.200;19.508;2023-01-25T21:06:05;102534.86;;;-0.02;100.00
34241;BME280;20503;50.200;19.508;2023-01-25T21:11:16;102527.27;;;0.04;100.00
34241;BME280;20503;50.200;19.508;2023-01-25T21:16:26;102516.38;;;0.05;100.00
34241;BME280;20503;50.200;19.508;2023-01-25T21:21:37;102514.02;;;0.01;100.00
34241;BME280;20503;50.200;19.508;2023-01-25T21:26:48;102509.20;;;0.06;100.00
34241;BME280;20503;50.200;19.508;2023-01-25T21:31:59;102520.66;;;-0.04;100.00
34241;BME280;20503;50.200;19.508;2023-01-25T21:37:09;102511.98;;;-0.09;100.00
34241;BME280;20503;50.200;19.508;2023-01-25T21:42:20;102502.67;;;-0.18;100.00
34241;BME280;20503;50.200;19.508;2023-01-25T21:47:31;102506.45;;;-0.20;100.00
34241;BME280;20503;50.200;19.508;2023-01-25T21:52:42;102496.66;;;-0.21;100.00
34241;BME280;20503;50.200;19.508;2023-01-25T21:57:53;102491.76;;;-0.29;100.00
34241;BME280;20503;50.200;19.508;2023-01-25T22:03:03;102496.94;;;-0.26;100.00
34241;BME280;20503;50.200;19.508;2023-01-25T22:08:14;102487.91;;;-0.25;100.00
34241;BME280;20503;50.200;19.508;2023-01-25T22:13:27;102475.71;;;-0.30;100.00
34241;BME280;20503;50.200;19.508;2023-01-25T22:18:38;102471.96;;;-0.28;100.00
34241;BME280;20503;50.200;19.508;2023-01-25T22:23:47;102466.10;;;-0.20;100.00
34241;BME280;20503;50.200;19.508;2023-01-25T22:28:59;102469.84;;;-0.23;100.00
34241;BME280;20503;50.200;19.508;2023-01-25T22:34:08;102470.80;;;-0.24;100.00
34241;BME280;20503;50.200;19.508;2023-01-25T22:39:19;102459.07;;;-0.23;100.00
34241;BME280;20503;50.200;19.508;2023-01-25T22:44:30;102468.66;;;-0.19;100.00
34241;BME280;20503;50.200;19.508;2023-01-25T22:49:40;102459.86;;;-0.35;100.00
34241;BME280;20503;50.200;19.508;2023-01-25T22:54:51;102457.44;;;-0.25;100.00
34241;BME280;20503;50.200;19.508;2023-01-25T23:00:03;102450.45;;;-0.28;100.00
34241;BME280;20503;50.200;19.508;2023-01-25T23:05:13;102426.61;;;-0.34;100.00
34241;BME280;20503;50.200;19.508;2023-01-25T23:10:23;102430.73;;;-0.28;100.00
34241;BME280;20503;50.200;19.508;2023-01-25T23:15:34;102416.06;;;-0.37;100.00
34241;BME280;20503;50.200;19.508;2023-01-25T23:20:45;102399.38;;;-0.42;100.00
34241;BME280;20503;50.200;19.508;2023-01-25T23:25:56;102399.66;;;-0.46;100.00
34241;BME280;20503;50.200;19.508;2023-01-25T23:31:10;102390.55;;;-0.44;100.00
34241;BME280;20503;50.200;19.508;2023-01-25T23:36:29;102382.47;;;-0.44;100.00
34241;BME280;20503;50.200;19.508;2023-01-25T23:41:31;102372.48;;;-0.42;100.00
34241;BME280;20503;50.200;19.508;2023-01-25T23:46:39;102385.92;;;-0.42;100.00
34241;BME280;20503;50.200;19.508;2023-01-25T23:51:50;102367.45;;;-0.34;100.00
34241;BME280;20503;50.200;19.508;2023-01-25T23:57:00;102367.59;;;-0.49;100.00
